sensor_id;sensor_type;location;lat;lon;timestamp;temperature;humidity
65637;DHT22;52327;42.622;23.316;2023-09-19T04:40:21;12.84;86.53
65637;DHT22;52327;42.622;23.316;2023-09-19T04:42:54;13.21;86.63
65637;DHT22;52327;42.622;23.316;2023-09-19T04:45:22;13.58;84.47
65637;DHT22;52327;42.622;23.316;2023-09-19T04:47:47;13.86;83.19
65637;DHT22;52327;42.622;23.316;2023-09-19T04:50:13;14.10;82.33
65637;DHT22;52327;42.622;23.316;2023-09-19T04:52:42;14.33;81.77
65637;DHT22;52327;42.622;23.316;2023-09-19T04:55:13;14.52;81.27
65637;DHT22;52327;42.622;23.316;2023-09-19T04:57:46;14.70;80.55
65637;DHT22;52327;42.622;23.316;2023-09-19T05:00:13;14.89;80.33
65637;DHT22;52327;42.622;23.316;2023-09-19T05:02:42;15.11;79.71
65637;DHT22;52327;42.622;23.316;2023-09-19T05:05:09;15.28;79.19
65637;DHT22;52327;42.622;23.316;2023-09-19T05:07:40;15.47;78.67
65637;DHT22;52327;42.622;23.316;2023-09-19T05:10:06;15.67;78.15
65637;DHT22;52327;42.622;23.316;2023-09-19T05:12:36;15.80;77.39
65637;DHT22;52327;42.622;23.316;2023-09-19T05:15:10;16.00;77.33
65637;DHT22;52327;42.622;23.316;2023-09-19T05:17:36;16.08;75.48
65637;DHT22;52327;42.622;23.316;2023-09-19T05:20:02;16.15;75.14
65637;DHT22;52327;42.622;23.316;2023-09-19T05:22:31;16.38;73.01
65637;DHT22;52327;42.622;23.316;2023-09-19T05:24:58;16.22;74.35
65637;DHT22;52327;42.622;23.316;2023-09-19T05:27:24;16.34;75.05
65637;DHT22;52327;42.622;23.316;2023-09-19T05:29:50;16.48;74.57
65637;DHT22;52327;42.622;23.316;2023-09-19T05:32:18;16.62;74.12
65637;DHT22;52327;42.622;23.316;2023-09-19T05:34:45;16.82;73.16
65637;DHT22;52327;42.622;23.316;2023-09-19T05:37:10;16.69;72.37
65637;DHT22;52327;42.622;23.316;2023-09-19T05:39:36;16.65;72.37
65637;DHT22;52327;42.622;23.316;2023-09-19T05:42:03;16.68;73.32
65637;DHT22;52327;42.622;23.316;2023-09-19T05:44:28;16.82;72.75
65637;DHT22;52327;42.622;23.316;2023-09-19T05:46:54;16.90;72.23
65637;DHT22;52327;42.622;23.316;2023-09-19T05:49:21;16.90;72.06
65637;DHT22;52327;42.622;23.316;2023-09-19T05:51:47;16.96;71.79
65637;DHT22;52327;42.622;23.316;2023-09-19T05:54:12;17.09;71.74
65637;DHT22;52327;42.622;23.316;2023-09-19T05:56:38;17.22;71.65
65637;DHT22;52327;42.622;23.316;2023-09-19T05:59:03;17.46;71.14
65637;DHT22;52327;42.622;23.316;2023-09-19T06:01:30;17.54;70.79
65637;DHT22;52327;42.622;23.316;2023-09-19T06:03:57;17.63;70.57
65637;DHT22;52327;42.622;23.316;2023-09-19T06:06:25;17.55;70.20
65637;DHT22;52327;42.622;23.316;2023-09-19T06:08:51;17.58;70.44
65637;DHT22;52327;42.622;23.316;2023-09-19T06:11:16;17.77;68.33
65637;DHT22;52327;42.622;23.316;2023-09-19T06:13:45;17.75;69.81
65637;DHT22;52327;42.622;23.316;2023-09-19T06:16:12;17.87;69.68
65637;DHT22;52327;42.622;23.316;2023-09-19T06:18:38;18.06;69.11
65637;DHT22;52327;42.622;23.316;2023-09-19T06:21:03;18.13;68.97
65637;DHT22;52327;42.622;23.316;2023-09-19T06:23:33;18.12;68.10
65637;DHT22;52327;42.622;23.316;2023-09-19T06:25:59;17.99;68.48
65637;DHT22;52327;42.622;23.316;2023-09-19T06:28:25;18.09;68.56
65637;DHT22;52327;42.622;23.316;2023-09-19T06:30:53;18.25;68.81
65637;DHT22;52327;42.622;23.316;2023-09-19T06:33:19;18.30;68.30
65637;DHT22;52327;42.622;23.316;2023-09-19T06:35:47;18.43;67.81
65637;DHT22;52327;42.622;23.316;2023-09-19T06:38:13;18.50;67.57
65637;DHT22;52327;42.622;23.316;2023-09-19T06:40:41;18.63;67.29
65637;DHT22;52327;42.622;23.316;2023-09-19T06:43:12;18.73;67.11
65637;DHT22;52327;42.622;23.316;2023-09-19T06:45:38;18.93;66.64
65637;DHT22;52327;42.622;23.316;2023-09-19T06:48:03;18.81;66.28
65637;DHT22;52327;42.622;23.316;2023-09-19T06:50:30;18.86;66.52
65637;DHT22;52327;42.622;23.316;2023-09-19T06:52:56;19.20;65.18
65637;DHT22;52327;42.622;23.316;2023-09-19T06:55:22;19.17;65.78
65637;DHT22;52327;42.622;23.316;2023-09-19T06:57:53;19.32;65.63
65637;DHT22;52327;42.622;23.316;2023-09-19T07:00:22;19.32;65.37
65637;DHT22;52327;42.622;23.316;2023-09-19T07:03:05;19.32;65.10
65637;DHT22;52327;42.622;23.316;2023-09-19T07:05:34;19.34;65.00
65637;DHT22;52327;42.622;23.316;2023-09-19T07:08:03;19.36;64.74
65637;DHT22;52327;42.622;23.316;2023-09-19T07:10:29;19.41;65.16
65637;DHT22;52327;42.622;23.316;2023-09-19T07:13:03;19.47;64.14
65637;DHT22;52327;42.622;23.316;2023-09-19T07:15:32;19.62;64.38
65637;DHT22;52327;42.622;23.316;2023-09-19T07:18:00;19.73;63.64
65637;DHT22;52327;42.622;23.316;2023-09-19T07:20:26;19.79;63.44
65637;DHT22;52327;42.622;23.316;2023-09-19T07:22:52;20.03;62.10
65637;DHT22;52327;42.622;23.316;2023-09-19T07:25:20;19.86;62.90
65637;DHT22;52327;42.622;23.316;2023-09-19T07:27:46;19.97;63.36
65637;DHT22;52327;42.622;23.316;2023-09-19T07:30:12;19.94;63.00
65637;DHT22;52327;42.622;23.316;2023-09-19T07:32:38;19.97;63.19
65637;DHT22;52327;42.622;23.316;2023-09-19T07:35:04;19.44;62.93
65637;DHT22;52327;42.622;23.316;2023-09-19T07:37:33;19.27;63.94
65637;DHT22;52327;42.622;23.316;2023-09-19T07:39:59;19.63;62.68
65637;DHT22;52327;42.622;23.316;2023-09-19T07:42:26;20.08;61.71
65637;DHT22;52327;42.622;23.316;2023-09-19T07:44:52;19.57;62.97
65637;DHT22;52327;42.622;23.316;2023-09-19T07:47:19;19.52;63.41
65637;DHT22;52327;42.622;23.316;2023-09-19T07:49:46;19.71;63.47
65637;DHT22;52327;42.622;23.316;2023-09-19T07:52:14;19.89;62.97
65637;DHT22;52327;42.622;23.316;2023-09-19T07:54:40;19.94;63.02
65637;DHT22;52327;42.622;23.316;2023-09-19T07:57:06;20.16;62.72
65637;DHT22;52327;42.622;23.316;2023-09-19T07:59:32;20.32;62.39
65637;DHT22;52327;42.622;23.316;2023-09-19T08:01:58;20.36;62.12
65637;DHT22;52327;42.622;23.316;2023-09-19T08:04:23;20.27;62.01
65637;DHT22;52327;42.622;23.316;2023-09-19T08:06:51;20.13;61.75
65637;DHT22;52327;42.622;23.316;2023-09-19T08:09:17;19.97;61.91
65637;DHT22;52327;42.622;23.316;2023-09-19T08:11:46;20.03;61.57
65637;DHT22;52327;42.622;23.316;2023-09-19T08:14:12;20.16;62.29
65637;DHT22;52327;42.622;23.316;2023-09-19T08:16:39;20.30;61.68
65637;DHT22;52327;42.622;23.316;2023-09-19T08:19:05;20.33;61.84
65637;DHT22;52327;42.622;23.316;2023-09-19T08:21:31;20.37;61.86
65637;DHT22;52327;42.622;23.316;2023-09-19T08:23:57;20.55;61.48
65637;DHT22;52327;42.622;23.316;2023-09-19T08:26:23;20.60;61.43
65637;DHT22;52327;42.622;23.316;2023-09-19T08:28:50;20.70;61.59
65637;DHT22;52327;42.622;23.316;2023-09-19T08:31:16;21.16;59.47
65637;DHT22;52327;42.622;23.316;2023-09-19T08:33:42;21.12;60.16
65637;DHT22;52327;42.622;23.316;2023-09-19T08:36:10;21.18;60.05
65637;DHT22;52327;42.622;23.316;2023-09-19T08:38:39;21.16;60.30
65637;DHT22;52327;42.622;23.316;2023-09-19T08:41:06;21.26;60.00
65637;DHT22;52327;42.622;23.316;2023-09-19T08:43:33;21.45;59.65
65637;DHT22;52327;42.622;23.316;2023-09-19T08:48:32;21.63;58.16
65637;DHT22;52327;42.622;23.316;2023-09-19T08:51:06;21.29;58.76
65637;DHT22;52327;42.622;23.316;2023-09-19T08:53:42;21.56;58.69
65637;DHT22;52327;42.622;23.316;2023-09-19T08:56:12;21.73;58.77
65637;DHT22;52327;42.622;23.316;2023-09-19T08:58:53;21.84;58.78
65637;DHT22;52327;42.622;23.316;2023-09-19T09:01:20;21.80;58.93
65637;DHT22;52327;42.622;23.316;2023-09-19T09:03:51;22.01;57.96
65637;DHT22;52327;42.622;23.316;2023-09-19T09:06:19;22.07;58.11
65637;DHT22;52327;42.622;23.316;2023-09-19T09:08:46;21.97;58.52
65637;DHT22;52327;42.622;23.316;2023-09-19T09:11:12;22.00;58.33
65637;DHT22;52327;42.622;23.316;2023-09-19T09:13:39;22.04;57.69
65637;DHT22;52327;42.622;23.316;2023-09-19T09:16:07;22.17;57.12
65637;DHT22;52327;42.622;23.316;2023-09-19T09:18:33;22.14;57.49
65637;DHT22;52327;42.622;23.316;2023-09-19T09:20:59;22.15;57.41
65637;DHT22;52327;42.622;23.316;2023-09-19T09:23:27;22.01;58.19
65637;DHT22;52327;42.622;23.316;2023-09-19T09:25:56;22.08;58.19
65637;DHT22;52327;42.622;23.316;2023-09-19T09:28:26;22.25;58.14
65637;DHT22;52327;42.622;23.316;2023-09-19T09:30:53;22.66;56.23
65637;DHT22;52327;42.622;23.316;2023-09-19T09:33:22;22.82;55.88
65637;DHT22;52327;42.622;23.316;2023-09-19T09:38:17;22.61;56.30
65637;DHT22;52327;42.622;23.316;2023-09-19T09:40:51;22.72;56.61
65637;DHT22;52327;42.622;23.316;2023-09-19T09:43:34;22.65;56.62
65637;DHT22;52327;42.622;23.316;2023-09-19T09:49:03;22.86;56.58
65637;DHT22;52327;42.622;23.316;2023-09-19T09:54:12;23.66;54.59
65637;DHT22;52327;42.622;23.316;2023-09-19T09:57:06;23.73;54.78
65637;DHT22;52327;42.622;23.316;2023-09-19T09:59:57;23.82;53.75
65637;DHT22;52327;42.622;23.316;2023-09-19T10:02:37;24.00;53.18
65637;DHT22;52327;42.622;23.316;2023-09-19T10:05:20;24.00;52.73
65637;DHT22;52327;42.622;23.316;2023-09-19T10:07:48;23.58;53.78
65637;DHT22;52327;42.622;23.316;2023-09-19T10:10:38;23.75;54.10
65637;DHT22;52327;42.622;23.316;2023-09-19T10:13:12;23.80;54.21
65637;DHT22;52327;42.622;23.316;2023-09-19T10:15:39;23.80;54.04
65637;DHT22;52327;42.622;23.316;2023-09-19T10:18:12;24.17;53.08
65637;DHT22;52327;42.622;23.316;2023-09-19T10:20:45;24.39;52.95
65637;DHT22;52327;42.622;23.316;2023-09-19T10:23:11;24.40;53.26
65637;DHT22;52327;42.622;23.316;2023-09-19T10:25:41;24.32;52.83
65637;DHT22;52327;42.622;23.316;2023-09-19T10:28:11;24.14;52.57
65637;DHT22;52327;42.622;23.316;2023-09-19T10:30:41;23.87;52.89
65637;DHT22;52327;42.622;23.316;2023-09-19T10:33:11;24.01;53.55
65637;DHT22;52327;42.622;23.316;2023-09-19T10:35:45;24.08;53.64
65637;DHT22;52327;42.622;23.316;2023-09-19T10:38:11;23.73;53.65
65637;DHT22;52327;42.622;23.316;2023-09-19T10:40:38;23.68;54.00
65637;DHT22;52327;42.622;23.316;2023-09-19T10:43:15;23.97;53.47
65637;DHT22;52327;42.622;23.316;2023-09-19T10:45:44;23.94;53.42
65637;DHT22;52327;42.622;23.316;2023-09-19T10:48:10;24.14;53.00
65637;DHT22;52327;42.622;23.316;2023-09-19T10:53:21;24.15;52.79
65637;DHT22;52327;42.622;23.316;2023-09-19T10:55:51;24.14;52.82
65637;DHT22;52327;42.622;23.316;2023-09-19T10:58:29;24.19;53.16
65637;DHT22;52327;42.622;23.316;2023-09-19T11:01:00;24.15;52.16
65637;DHT22;52327;42.622;23.316;2023-09-19T11:03:32;23.71;53.22
65637;DHT22;52327;42.622;23.316;2023-09-19T11:06:03;23.70;53.76
65637;DHT22;52327;42.622;23.316;2023-09-19T11:08:56;23.81;53.68
65637;DHT22;52327;42.622;23.316;2023-09-19T11:30:34;23.12;54.66
65637;DHT22;52327;42.622;23.316;2023-09-19T11:33:30;23.60;53.76
65637;DHT22;52327;42.622;23.316;2023-09-19T11:36:12;23.60;54.60
65637;DHT22;52327;42.622;23.316;2023-09-19T11:43:47;24.59;52.35
65637;DHT22;52327;42.622;23.316;2023-09-19T11:46:13;24.82;51.91
65637;DHT22;52327;42.622;23.316;2023-09-19T11:48:42;24.96;51.82
65637;DHT22;52327;42.622;23.316;2023-09-19T11:51:13;25.21;50.68
65637;DHT22;52327;42.622;23.316;2023-09-19T11:53:41;25.19;50.90
65637;DHT22;52327;42.622;23.316;2023-09-19T11:56:09;25.27;50.68
65637;DHT22;52327;42.622;23.316;2023-09-19T11:58:36;25.31;51.11
65637;DHT22;52327;42.622;23.316;2023-09-19T12:01:04;25.44;50.51
65637;DHT22;52327;42.622;23.316;2023-09-19T12:03:35;25.48;49.67
65637;DHT22;52327;42.622;23.316;2023-09-19T12:06:11;25.28;50.44
65637;DHT22;52327;42.622;23.316;2023-09-19T12:08:41;25.38;49.59
65637;DHT22;52327;42.622;23.316;2023-09-19T12:11:18;25.17;49.59
65637;DHT22;52327;42.622;23.316;2023-09-19T12:13:46;25.23;49.84
65637;DHT22;52327;42.622;23.316;2023-09-19T12:16:17;24.89;50.26
65637;DHT22;52327;42.622;23.316;2023-09-19T12:18:44;24.86;51.48
65637;DHT22;52327;42.622;23.316;2023-09-19T12:21:31;24.72;51.54
65637;DHT22;52327;42.622;23.316;2023-09-19T12:24:07;24.83;51.95
65637;DHT22;52327;42.622;23.316;2023-09-19T12:26:45;25.23;51.06
65637;DHT22;52327;42.622;23.316;2023-09-19T12:29:17;25.67;49.20
65637;DHT22;52327;42.622;23.316;2023-09-19T12:32:08;25.88;48.41
65637;DHT22;52327;42.622;23.316;2023-09-19T12:34:33;26.25;48.56
65637;DHT22;52327;42.622;23.316;2023-09-19T12:37:12;26.94;47.35
65637;DHT22;52327;42.622;23.316;2023-09-19T12:39:45;27.62;46.05
65637;DHT22;52327;42.622;23.316;2023-09-19T12:42:26;28.21;44.37
65637;DHT22;52327;42.622;23.316;2023-09-19T12:44:58;28.95;43.33
65637;DHT22;52327;42.622;23.316;2023-09-19T12:47:27;29.80;41.34
65637;DHT22;52327;42.622;23.316;2023-09-19T12:50:11;30.41;40.12
65637;DHT22;52327;42.622;23.316;2023-09-19T12:52:58;30.55;39.23
65637;DHT22;52327;42.622;23.316;2023-09-19T12:55:30;30.88;38.86
65637;DHT22;52327;42.622;23.316;2023-09-19T12:58:14;31.77;36.92
65637;DHT22;52327;42.622;23.316;2023-09-19T13:00:45;32.14;36.54
65637;DHT22;52327;42.622;23.316;2023-09-19T13:03:13;32.22;36.31
65637;DHT22;52327;42.622;23.316;2023-09-19T13:06:07;32.70;35.94
65637;DHT22;52327;42.622;23.316;2023-09-19T13:08:37;33.06;35.34
65637;DHT22;52327;42.622;23.316;2023-09-19T13:11:15;33.30;35.29
65637;DHT22;52327;42.622;23.316;2023-09-19T13:13:49;33.55;34.53
65637;DHT22;52327;42.622;23.316;2023-09-19T13:16:20;34.01;33.65
65637;DHT22;52327;42.622;23.316;2023-09-19T13:21:16;34.16;34.15
65637;DHT22;52327;42.622;23.316;2023-09-19T13:23:53;33.85;33.65
65637;DHT22;52327;42.622;23.316;2023-09-19T13:26:21;33.71;34.09
65637;DHT22;52327;42.622;23.316;2023-09-19T13:28:47;33.21;34.60
65637;DHT22;52327;42.622;23.316;2023-09-19T13:31:14;33.37;34.83
65637;DHT22;52327;42.622;23.316;2023-09-19T13:33:44;33.74;34.11
65637;DHT22;52327;42.622;23.316;2023-09-19T13:36:11;34.11;33.66
65637;DHT22;52327;42.622;23.316;2023-09-19T13:38:37;34.45;33.12
65637;DHT22;52327;42.622;23.316;2023-09-19T13:41:02;34.63;32.73
65637;DHT22;52327;42.622;23.316;2023-09-19T13:43:28;34.89;32.36
65637;DHT22;52327;42.622;23.316;2023-09-19T13:45:54;34.80;32.34
65637;DHT22;52327;42.622;23.316;2023-09-19T13:48:19;34.82;32.26
65637;DHT22;52327;42.622;23.316;2023-09-19T13:50:48;35.13;31.64
65637;DHT22;52327;42.622;23.316;2023-09-19T13:53:13;34.29;32.53
65637;DHT22;52327;42.622;23.316;2023-09-19T13:55:39;33.49;34.03
65637;DHT22;52327;42.622;23.316;2023-09-19T13:58:04;33.11;34.57
65637;DHT22;52327;42.622;23.316;2023-09-19T14:00:32;33.57;34.25
65637;DHT22;52327;42.622;23.316;2023-09-19T14:03:00;33.88;33.64
65637;DHT22;52327;42.622;23.316;2023-09-19T14:05:26;34.19;33.42
65637;DHT22;52327;42.622;23.316;2023-09-19T14:07:52;34.28;33.21
65637;DHT22;52327;42.622;23.316;2023-09-19T14:10:17;34.43;32.58
65637;DHT22;52327;42.622;23.316;2023-09-19T14:12:45;34.53;32.64
65637;DHT22;52327;42.622;23.316;2023-09-19T14:15:10;34.45;33.30
65637;DHT22;52327;42.622;23.316;2023-09-19T14:17:37;34.18;33.39
65637;DHT22;52327;42.622;23.316;2023-09-19T14:20:03;34.12;33.30
65637;DHT22;52327;42.622;23.316;2023-09-19T14:22:31;33.71;34.12
65637;DHT22;52327;42.622;23.316;2023-09-19T14:24:56;33.19;34.49
65637;DHT22;52327;42.622;23.316;2023-09-19T14:27:22;33.04;35.08
65637;DHT22;52327;42.622;23.316;2023-09-19T14:29:47;32.86;35.25
65637;DHT22;52327;42.622;23.316;2023-09-19T14:32:13;32.49;35.55
65637;DHT22;52327;42.622;23.316;2023-09-19T14:34:38;32.10;36.85
65637;DHT22;52327;42.622;23.316;2023-09-19T14:37:07;31.53;37.13
65637;DHT22;52327;42.622;23.316;2023-09-19T14:39:33;31.03;38.59
65637;DHT22;52327;42.622;23.316;2023-09-19T14:41:58;30.49;39.24
65637;DHT22;52327;42.622;23.316;2023-09-19T14:44:24;29.96;40.74
65637;DHT22;52327;42.622;23.316;2023-09-19T14:46:50;29.52;42.02
65637;DHT22;52327;42.622;23.316;2023-09-19T14:49:15;29.22;43.16
65637;DHT22;52327;42.622;23.316;2023-09-19T14:51:42;28.90;45.31
65637;DHT22;52327;42.622;23.316;2023-09-19T14:54:09;28.55;46.64
65637;DHT22;52327;42.622;23.316;2023-09-19T14:56:34;28.26;47.99
65637;DHT22;52327;42.622;23.316;2023-09-19T14:59:00;27.99;48.62
65637;DHT22;52327;42.622;23.316;2023-09-19T15:01:25;27.83;48.27
65637;DHT22;52327;42.622;23.316;2023-09-19T15:03:51;27.66;49.17
65637;DHT22;52327;42.622;23.316;2023-09-19T15:06:16;27.44;49.41
65637;DHT22;52327;42.622;23.316;2023-09-19T15:08:45;27.35;49.00
65637;DHT22;52327;42.622;23.316;2023-09-19T15:11:15;27.24;49.27
65637;DHT22;52327;42.622;23.316;2023-09-19T15:13:46;27.08;49.80
65637;DHT22;52327;42.622;23.316;2023-09-19T15:16:11;26.94;50.11
65637;DHT22;52327;42.622;23.316;2023-09-19T15:18:41;26.79;50.55
65637;DHT22;52327;42.622;23.316;2023-09-19T15:21:08;26.63;50.40
65637;DHT22;52327;42.622;23.316;2023-09-19T15:23:35;26.44;51.18
65637;DHT22;52327;42.622;23.316;2023-09-19T15:26:06;26.28;52.03
65637;DHT22;52327;42.622;23.316;2023-09-19T15:28:32;26.19;50.99
65637;DHT22;52327;42.622;23.316;2023-09-19T15:31:12;26.02;52.16
65637;DHT22;52327;42.622;23.316;2023-09-19T15:33:38;25.85;52.71
65637;DHT22;52327;42.622;23.316;2023-09-19T15:36:08;25.80;52.18
65637;DHT22;52327;42.622;23.316;2023-09-19T15:39:02;25.58;52.29
65637;DHT22;52327;42.622;23.316;2023-09-19T15:41:30;25.23;53.33
65637;DHT22;52327;42.622;23.316;2023-09-19T15:43:56;25.00;54.14
65637;DHT22;52327;42.622;23.316;2023-09-19T15:46:22;24.86;54.44
65637;DHT22;52327;42.622;23.316;2023-09-19T15:48:48;24.69;55.25
65637;DHT22;52327;42.622;23.316;2023-09-19T15:51:14;24.77;54.20
65637;DHT22;52327;42.622;23.316;2023-09-19T15:53:50;24.68;54.82
65637;DHT22;52327;42.622;23.316;2023-09-19T15:56:16;24.59;55.67
65637;DHT22;52327;42.622;23.316;2023-09-19T15:58:45;24.45;56.22
65637;DHT22;52327;42.622;23.316;2023-09-19T16:01:12;24.45;56.29
65637;DHT22;52327;42.622;23.316;2023-09-19T16:03:39;24.48;55.76
65637;DHT22;52327;42.622;23.316;2023-09-19T16:06:16;24.40;56.81
65637;DHT22;52327;42.622;23.316;2023-09-19T16:08:54;24.36;56.80
65637;DHT22;52327;42.622;23.316;2023-09-19T16:11:21;24.21;57.42
65637;DHT22;52327;42.622;23.316;2023-09-19T16:13:50;24.11;57.06
65637;DHT22;52327;42.622;23.316;2023-09-19T16:16:17;23.97;57.67
65637;DHT22;52327;42.622;23.316;2023-09-19T16:18:48;23.88;57.65
65637;DHT22;52327;42.622;23.316;2023-09-19T16:21:16;23.78;57.80
65637;DHT22;52327;42.622;23.316;2023-09-19T16:23:46;23.61;57.96
65637;DHT22;52327;42.622;23.316;2023-09-19T16:26:12;23.47;58.39
65637;DHT22;52327;42.622;23.316;2023-09-19T16:28:41;23.47;57.15
65637;DHT22;52327;42.622;23.316;2023-09-19T16:31:08;23.31;58.06
65637;DHT22;52327;42.622;23.316;2023-09-19T16:33:38;23.12;58.23
65637;DHT22;52327;42.622;23.316;2023-09-19T16:36:09;22.86;58.78
65637;DHT22;52327;42.622;23.316;2023-09-19T16:38:35;22.79;59.14
65637;DHT22;52327;42.622;23.316;2023-09-19T16:41:02;22.44;59.78
65637;DHT22;52327;42.622;23.316;2023-09-19T16:43:28;22.22;60.40
65637;DHT22;52327;42.622;23.316;2023-09-19T16:45:54;22.14;60.69
65637;DHT22;52327;42.622;23.316;2023-09-19T16:48:21;21.98;61.20
65637;DHT22;52327;42.622;23.316;2023-09-19T16:50:51;21.96;61.28
65637;DHT22;52327;42.622;23.316;2023-09-19T16:53:20;21.94;60.70
65637;DHT22;52327;42.622;23.316;2023-09-19T16:55:48;21.94;60.92
65637;DHT22;52327;42.622;23.316;2023-09-19T16:58:15;21.96;60.11
65637;DHT22;52327;42.622;23.316;2023-09-19T17:00:41;21.94;60.41
65637;DHT22;52327;42.622;23.316;2023-09-19T17:03:12;21.92;60.54
65637;DHT22;52327;42.622;23.316;2023-09-19T17:05:38;21.92;60.23
65637;DHT22;52327;42.622;23.316;2023-09-19T17:08:07;21.90;61.03
65637;DHT22;52327;42.622;23.316;2023-09-19T17:10:33;21.86;61.17
65637;DHT22;52327;42.622;23.316;2023-09-19T17:13:00;22.03;60.07
65637;DHT22;52327;42.622;23.316;2023-09-19T17:15:25;21.97;60.57
65637;DHT22;52327;42.622;23.316;2023-09-19T17:17:52;22.00;59.79
65637;DHT22;52327;42.622;23.316;2023-09-19T17:20:18;21.98;59.71
65637;DHT22;52327;42.622;23.316;2023-09-19T17:22:44;21.93;59.82
65637;DHT22;52327;42.622;23.316;2023-09-19T17:25:10;21.97;59.88
65637;DHT22;52327;42.622;23.316;2023-09-19T17:27:38;21.93;59.97
65637;DHT22;52327;42.622;23.316;2023-09-19T17:30:09;21.87;60.61
65637;DHT22;52327;42.622;23.316;2023-09-19T17:32:41;21.92;59.69
65637;DHT22;52327;42.622;23.316;2023-09-19T17:35:06;21.90;59.31
65637;DHT22;52327;42.622;23.316;2023-09-19T17:37:33;21.82;60.23
65637;DHT22;52327;42.622;23.316;2023-09-19T17:39:59;21.83;60.11
65637;DHT22;52327;42.622;23.316;2023-09-19T17:42:37;21.83;60.19
65637;DHT22;52327;42.622;23.316;2023-09-19T17:45:04;21.83;60.10
65637;DHT22;52327;42.622;23.316;2023-09-19T17:47:30;21.74;60.94
65637;DHT22;52327;42.622;23.316;2023-09-19T17:49:55;21.79;60.21
65637;DHT22;52327;42.622;23.316;2023-09-19T17:52:21;21.87;59.53
